Time;durP1;ratioP1;P1;durP2;ratioP2;P2;SDS_P1;SDS_P2;PMS_P1;PMS_P2;Temp;Humidity;BMP_temperature;BMP_pressure;BME280_temperature;BME280_humidity;BME280_pressure;Samples;Min_cycle;Max_cycle;Signal;HPM_P1;HPM_P2
2023/10/22 00:02:21;;;;;;;10.70;7.95;;;;;;;9.02;100.00;95195.28;6310387;22;20440;-64
2023/10/22 00:04:47;;;;;;;9.82;8.75;;;;;;;9.02;100.00;95189.22;6310749;22;19995;-65
2023/10/22 00:07:14;;;;;;;7.38;6.15;;;;;;;9.01;100.00;95187.56;6282059;22;20566;-64
2023/10/22 00:09:40;;;;;;;6.97;6.30;;;;;;;8.97;100.00;95186.19;6309739;22;20027;-64
2023/10/22 00:12:06;;;;;;;7.53;5.90;;;;;;;8.94;100.00;95191.72;6283170;22;20492;-64
2023/10/22 00:14:31;;;;;;;10.70;5.97;;;;;;;8.95;100.00;95193.38;6309959;22;20421;-65
2023/10/22 00:16:57;;;;;;;5.97;5.38;;;;;;;8.92;100.00;95188.41;6309972;22;20042;-64
2023/10/22 00:19:22;;;;;;;5.93;4.45;;;;;;;8.88;100.00;95182.63;6309680;22;20006;-65
2023/10/22 00:21:47;;;;;;;5.30;4.80;;;;;;;8.88;100.00;95193.13;6310224;22;20022;-64
2023/10/22 00:24:13;;;;;;;6.18;4.05;;;;;;;8.87;100.00;95200.16;6309284;22;20010;-64
2023/10/22 00:26:39;;;;;;;3.80;3.47;;;;;;;8.89;100.00;95200.84;6310246;22;20026;-64
2023/10/22 00:29:05;;;;;;;8.55;4.85;;;;;;;8.78;100.00;95189.69;6309189;22;20447;-65
2023/10/22 00:31:31;;;;;;;9.90;7.13;;;;;;;8.73;100.00;95200.63;6281847;22;20003;-65
2023/10/22 00:33:56;;;;;;;15.13;8.10;;;;;;;9.05;100.00;95204.69;6282750;22;19995;-67
2023/10/22 00:36:24;;;;;;;8.68;7.78;;;;;;;8.83;100.00;95209.31;6283084;22;20433;-67
2023/10/22 00:38:50;;;;;;;12.65;8.35;;;;;;;8.64;100.00;95202.31;6282497;22;20005;-65
2023/10/22 00:41:15;;;;;;;12.63;8.10;;;;;;;8.53;100.00;95208.56;6282064;22;20440;-67
2023/10/22 00:43:41;;;;;;;9.10;7.05;;;;;;;8.51;100.00;95214.91;6309260;22;20026;-64
2023/10/22 00:46:06;;;;;;;9.90;6.95;;;;;;;8.52;100.00;95211.31;6282206;22;19999;-64
2023/10/22 00:48:32;;;;;;;9.25;5.80;;;;;;;8.49;100.00;95217.63;6310096;22;20035;-64
2023/10/22 00:50:57;;;;;;;7.38;5.50;;;;;;;8.50;100.00;95221.13;6282357;22;20011;-65
2023/10/22 00:53:27;;;;;;;8.75;5.85;;;;;;;8.54;100.00;95227.75;6282201;22;20386;-65
2023/10/22 00:55:53;;;;;;;6.90;4.75;;;;;;;8.54;100.00;95228.59;6307460;22;20023;-64
2023/10/22 00:58:20;;;;;;;8.40;4.72;;;;;;;8.52;100.00;95233.16;6281668;22;20014;-64
2023/10/22 01:00:46;;;;;;;6.35;4.55;;;;;;;8.52;100.00;95229.69;6308296;22;20007;-64
2023/10/22 01:03:11;;;;;;;10.38;4.00;;;;;;;8.53;100.00;95226.09;6282869;22;20010;-66
2023/10/22 01:05:38;;;;;;;6.45;4.30;;;;;;;8.52;100.00;95227.91;6309575;22;20003;-67
2023/10/22 01:08:05;;;;;;;7.35;4.15;;;;;;;8.48;100.00;95223.84;6309406;22;20021;-66
2023/10/22 01:10:35;;;;;;;5.45;3.53;;;;;;;8.50;100.00;95223.75;6309867;22;20034;-67
2023/10/22 01:13:01;;;;;;;3.28;3.00;;;;;;;8.48;100.00;95229.09;6309404;22;20022;-67
2023/10/22 01:15:26;;;;;;;3.20;2.85;;;;;;;8.43;100.00;95216.41;6309091;22;19999;-66
2023/10/22 01:17:53;;;;;;;6.00;3.47;;;;;;;8.39;100.00;95217.63;6309281;22;20007;-66
2023/10/22 01:20:18;;;;;;;5.63;3.47;;;;;;;8.37;100.00;95218.78;6282781;22;19995;-66
2023/10/22 01:22:44;;;;;;;4.95;3.10;;;;;;;8.31;100.00;95214.91;6309461;22;19999;-66
2023/10/22 01:25:10;;;;;;;4.22;2.95;;;;;;;8.28;100.00;95218.63;6309544;22;20045;-66
2023/10/22 01:27:36;;;;;;;3.42;2.70;;;;;;;8.25;100.00;95216.28;6308791;22;20033;-66
2023/10/22 01:30:02;;;;;;;6.78;3.40;;;;;;;8.23;100.00;95227.91;6309513;22;19999;-66
2023/10/22 01:32:31;;;;;;;3.75;3.00;;;;;;;8.23;100.00;95220.84;6309198;22;19999;-66
2023/10/22 01:34:57;;;;;;;3.65;3.33;;;;;;;8.22;100.00;95216.56;6282752;22;20006;-66
2023/10/22 01:37:23;;;;;;;3.00;2.70;;;;;;;8.14;100.00;95221.69;6308396;22;20007;-66
2023/10/22 01:39:49;;;;;;;6.50;3.17;;;;;;;8.23;100.00;95220.03;6308843;22;19999;-66
2023/10/22 01:42:15;;;;;;;3.30;3.00;;;;;;;8.20;100.00;95226.38;6309505;22;19996;-66
2023/10/22 01:44:40;;;;;;;5.85;3.30;;;;;;;8.16;100.00;95225.81;6309693;22;20003;-66
2023/10/22 01:47:05;;;;;;;3.78;3.00;;;;;;;8.19;100.00;95237.81;6309698;22;20066;-66
2023/10/22 01:49:31;;;;;;;5.30;3.10;;;;;;;8.21;100.00;95241.13;6309662;22;19995;-66
2023/10/22 01:51:56;;;;;;;4.32;2.70;;;;;;;8.21;100.00;95240.31;6309318;22;20006;-66
2023/10/22 01:54:22;;;;;;;3.63;2.78;;;;;;;8.23;100.00;95233.94;6308284;22;20007;-66
2023/10/22 01:56:47;;;;;;;3.20;2.75;;;;;;;8.26;100.00;95240.72;6280881;22;20080;-66
2023/10/22 01:59:13;;;;;;;3.15;2.80;;;;;;;8.28;100.00;95236.97;6307971;22;20090;-66
2023/10/22 02:01:39;;;;;;;2.75;2.47;;;;;;;8.36;100.00;95240.72;6281522;22;20074;-66
2023/10/22 02:04:05;;;;;;;7.25;3.33;;;;;;;8.41;100.00;95243.75;6309456;22;20003;-66
2023/10/22 02:06:30;;;;;;;7.03;2.60;;;;;;;8.42;100.00;95246.25;6309505;22;20007;-66
2023/10/22 02:08:55;;;;;;;6.18;2.58;;;;;;;8.47;100.00;95248.44;6308590;22;20361;-66
2023/10/22 02:11:21;;;;;;;3.40;2.40;;;;;;;8.45;100.00;95253.00;6308406;22;20048;-66
2023/10/22 02:13:47;;;;;;;5.20;2.10;;;;;;;8.45;100.00;95253.00;6309303;22;20010;-66
2023/10/22 02:16:12;;;;;;;4.05;2.22;;;;;;;8.45;100.00;95255.59;6308711;22;20002;-66
2023/10/22 02:18:38;;;;;;;3.88;2.30;;;;;;;8.46;100.00;95246.78;6309226;22;20003;-66
2023/10/22 02:21:04;;;;;;;4.28;2.60;;;;;;;8.49;100.00;95246.50;6308800;22;20011;-66
2023/10/22 02:23:30;;;;;;;2.78;1.90;;;;;;;8.53;100.00;95247.91;6309270;22;20007;-67
2023/10/22 02:25:55;;;;;;;4.72;2.10;;;;;;;8.57;100.00;95246.66;6309076;22;20038;-66
2023/10/22 02:28:21;;;;;;;4.35;2.13;;;;;;;8.59;100.00;95241.25;6279842;22;20082;-67
2023/10/22 02:30:50;;;;;;;3.08;2.00;;;;;;;8.62;100.00;95250.66;6308530;22;20066;-66
2023/10/22 02:33:17;;;;;;;2.00;1.80;;;;;;;8.60;100.00;95246.38;6307646;22;20401;-66
2023/10/22 02:35:44;;;;;;;6.15;2.80;;;;;;;8.56;100.00;95252.88;6308563;22;20003;-67
2023/10/22 02:38:15;;;;;;;7.82;2.33;;;;;;;8.55;100.00;95258.25;6308859;22;19999;-66
2023/10/22 02:40:41;;;;;;;2.25;1.90;;;;;;;8.54;100.00;95261.84;6309232;22;20010;-67
2023/10/22 02:43:07;;;;;;;5.85;2.40;;;;;;;8.55;100.00;95260.88;6309624;22;20352;-66
2023/10/22 02:45:32;;;;;;;4.72;2.00;;;;;;;8.56;100.00;95263.38;6308312;22;20006;-66
2023/10/22 02:47:59;;;;;;;7.13;2.30;;;;;;;8.53;100.00;95266.28;6308604;22;20435;-67
2023/10/22 02:50:25;;;;;;;3.75;2.22;;;;;;;8.52;100.00;95269.03;6308277;22;20370;-66
2023/10/22 02:52:51;;;;;;;5.07;1.98;;;;;;;8.51;100.00;95268.22;6308708;22;20006;-66
2023/10/22 02:55:17;;;;;;;7.20;2.45;;;;;;;8.52;100.00;95267.25;6308389;22;20018;-66
2023/10/22 02:57:43;;;;;;;2.30;2.17;;;;;;;8.55;100.00;95269.59;6281042;22;20074;-67
2023/10/22 03:00:12;;;;;;;4.32;2.30;;;;;;;8.54;100.00;95267.09;6307642;22;20006;-67
2023/10/22 03:02:39;;;;;;;3.17;2.47;;;;;;;8.52;100.00;95269.88;6308065;22;19995;-66
2023/10/22 03:05:04;;;;;;;5.15;2.95;;;;;;;8.50;100.00;95271.78;6308237;22;20004;-66
2023/10/22 03:07:30;;;;;;;3.47;2.90;;;;;;;8.50;100.00;95279.66;6308348;22;19995;-66
2023/10/22 03:09:56;;;;;;;3.10;2.80;;;;;;;8.53;100.00;95286.44;6308738;22;20661;-66
2023/10/22 03:12:21;;;;;;;3.83;2.40;;;;;;;8.49;100.00;95283.22;6308114;22;20649;-66
2023/10/22 03:14:49;;;;;;;3.72;2.50;;;;;;;8.44;100.00;95269.69;6308312;22;20000;-67
2023/10/22 03:17:17;;;;;;;3.90;2.20;;;;;;;8.42;100.00;95282.97;6280788;22;20031;-67
2023/10/22 03:19:42;;;;;;;2.72;2.00;;;;;;;8.42;100.00;95285.59;6306459;22;19999;-66
2023/10/22 03:22:08;;;;;;;2.85;2.47;;;;;;;8.39;100.00;95277.97;6308116;22;19999;-67
2023/10/22 03:24:33;;;;;;;5.13;2.42;;;;;;;8.34;100.00;95277.56;6308348;22;19999;-66
2023/10/22 03:26:59;;;;;;;3.25;2.05;;;;;;;8.31;100.00;95277.84;6305927;22;20007;-67
2023/10/22 03:29:25;;;;;;;3.22;2.22;;;;;;;8.27;100.00;95279.09;6307605;22;20052;-67
2023/10/22 03:31:50;;;;;;;2.22;2.03;;;;;;;8.22;100.00;95276.88;6280790;22;20464;-67
2023/10/22 03:34:16;;;;;;;3.88;2.05;;;;;;;8.21;100.00;95271.78;6308897;22;20331;-66
2023/10/22 03:36:41;;;;;;;2.45;2.25;;;;;;;8.19;100.00;95269.28;6281126;22;20420;-66
2023/10/22 03:39:07;;;;;;;2.58;1.92;;;;;;;8.16;100.00;95277.44;6307442;22;20003;-66
2023/10/22 03:41:33;;;;;;;4.07;2.28;;;;;;;8.14;100.00;95284.63;6281177;22;19995;-66
2023/10/22 03:43:59;;;;;;;4.25;2.00;;;;;;;8.12;100.00;95270.81;6308526;22;19999;-66
2023/10/22 03:46:24;;;;;;;4.97;3.00;;;;;;;8.14;100.00;95282.00;6279465;22;20005;-66
2023/10/22 03:48:50;;;;;;;6.38;2.25;;;;;;;8.08;100.00;95279.94;6306925;22;19999;-67
2023/10/22 03:51:15;;;;;;;3.90;2.50;;;;;;;8.05;100.00;95277.53;6308309;22;20060;-66
2023/10/22 03:53:41;;;;;;;2.60;2.40;;;;;;;8.01;100.00;95267.34;6308528;22;20353;-66
2023/10/22 03:56:07;;;;;;;3.17;2.13;;;;;;;7.99;100.00;95266.66;6308654;22;20578;-66
2023/10/22 03:58:32;;;;;;;7.65;1.90;;;;;;;7.93;100.00;95268.97;6308405;22;20010;-66
2023/10/22 04:00:58;;;;;;;5.60;1.95;;;;;;;7.88;100.00;95266.78;6307982;22;19999;-66
2023/10/22 04:03:23;;;;;;;4.13;2.10;;;;;;;7.87;100.00;95273.00;6308416;22;20071;-66
2023/10/22 04:05:56;;;;;;;2.28;1.80;;;;;;;7.86;100.00;95272.16;6307802;22;20003;-66
2023/10/22 04:08:23;;;;;;;5.50;2.25;;;;;;;7.88;100.00;95277.28;6307494;22;20049;-66
2023/10/22 04:10:48;;;;;;;3.05;2.20;;;;;;;7.81;100.00;95278.75;6307809;22;20382;-66
2023/10/22 04:13:14;;;;;;;2.22;1.98;;;;;;;7.79;100.00;95285.94;6281449;22;20003;-66
2023/10/22 04:15:39;;;;;;;5.70;1.95;;;;;;;7.71;100.00;95289.22;6308478;22;19999;-67
2023/10/22 04:18:05;;;;;;;2.03;1.80;;;;;;;7.62;100.00;95290.84;6308552;22;20070;-66
2023/10/22 04:20:33;;;;;;;5.97;2.55;;;;;;;7.62;100.00;95292.66;6308547;22;20062;-66
2023/10/22 04:22:59;;;;;;;3.60;2.50;;;;;;;7.59;100.00;95299.81;6308630;22;20069;-66
2023/10/22 04:25:26;;;;;;;4.43;2.97;;;;;;;7.57;100.00;95308.75;6308109;22;20011;-66
2023/10/22 04:27:51;;;;;;;3.47;3.15;;;;;;;7.53;100.00;95315.22;6308157;22;19995;-66
2023/10/22 04:30:17;;;;;;;5.22;3.00;;;;;;;7.49;100.00;95313.84;6308667;22;20006;-66
2023/10/22 04:32:42;;;;;;;4.13;3.10;;;;;;;7.42;100.00;95311.75;6308087;22;19995;-66
2023/10/22 04:35:08;;;;;;;4.47;3.15;;;;;;;7.37;100.00;95307.88;6308953;22;20006;-66
2023/10/22 04:37:33;;;;;;;5.68;3.22;;;;;;;7.37;100.00;95311.31;6282607;22;19999;-66
2023/10/22 04:39:59;;;;;;;4.50;3.45;;;;;;;7.34;100.00;95308.94;6310028;22;20034;-66
2023/10/22 04:42:24;;;;;;;4.10;3.17;;;;;;;7.28;100.00;95304.25;6282792;22;20102;-66
2023/10/22 04:44:50;;;;;;;4.47;3.15;;;;;;;7.27;100.00;95305.19;6282287;22;20037;-66
2023/10/22 04:47:16;;;;;;;4.50;3.53;;;;;;;7.21;100.00;95305.75;6282689;22;20003;-66
2023/10/22 04:49:44;;;;;;;4.18;3.03;;;;;;;7.15;100.00;95307.06;6307941;22;19999;-66
2023/10/22 04:52:10;;;;;;;3.33;3.03;;;;;;;7.12;100.00;95316.00;6310069;22;20005;-66
2023/10/22 04:54:36;;;;;;;3.25;2.75;;;;;;;7.13;100.00;95319.47;6309674;22;20068;-66
2023/10/22 04:57:04;;;;;;;3.08;2.55;;;;;;;7.15;100.00;95320.16;6309315;22;20065;-66
2023/10/22 04:59:30;;;;;;;2.83;2.63;;;;;;;7.08;100.00;95329.50;6310193;22;19999;-66
2023/10/22 05:01:55;;;;;;;2.85;2.65;;;;;;;7.15;100.00;95339.31;6283023;22;20007;-66
2023/10/22 05:04:21;;;;;;;2.75;2.55;;;;;;;7.24;100.00;95329.84;6310460;22;20017;-66
2023/10/22 05:06:46;;;;;;;7.15;4.53;;;;;;;7.20;100.00;95338.94;6309608;22;20034;-66
2023/10/22 05:09:12;;;;;;;5.50;5.00;;;;;;;7.04;100.00;95344.63;6309091;22;19999;-66
2023/10/22 05:11:37;;;;;;;7.10;5.50;;;;;;;6.92;100.00;95348.25;6309535;22;20044;-66
2023/10/22 05:14:02;;;;;;;6.18;5.07;;;;;;;6.83;100.00;95366.41;6256454;22;20420;-66
2023/10/22 05:16:28;;;;;;;6.68;4.22;;;;;;;6.77;100.00;95363.44;6310106;22;20412;-67
2023/10/22 05:18:53;;;;;;;8.32;4.03;;;;;;;6.73;100.00;95363.72;6309428;22;20351;-66
2023/10/22 05:21:19;;;;;;;5.28;4.00;;;;;;;6.68;100.00;95365.88;6310015;22;20003;-66
2023/10/22 05:23:45;;;;;;;4.80;4.22;;;;;;;6.63;100.00;95361.97;6309223;22;20450;-66
2023/10/22 05:26:12;;;;;;;4.40;3.97;;;;;;;6.65;100.00;95360.91;6308930;22;19999;-66
2023/10/22 05:28:39;;;;;;;5.88;4.60;;;;;;;6.58;100.00;95360.56;6309081;22;20428;-66
2023/10/22 05:31:15;;;;;;;10.73;4.55;;;;;;;6.57;100.00;95353.69;6309287;22;19995;-66
2023/10/22 05:33:44;;;;;;;7.68;4.78;;;;;;;6.61;100.00;95363.88;6309816;22;19999;-66
2023/10/22 05:36:20;;;;;;;4.85;4.35;;;;;;;6.59;100.00;95366.63;6309414;22;20012;-66
2023/10/22 05:38:47;;;;;;;5.32;4.47;;;;;;;6.51;100.00;95369.84;6309695;22;20006;-66
2023/10/22 05:41:23;;;;;;;5.47;4.28;;;;;;;6.48;100.00;95372.72;6308977;22;19995;-66
2023/10/22 05:43:50;;;;;;;5.68;4.38;;;;;;;6.46;100.00;95369.41;6308834;22;20022;-66
2023/10/22 05:46:16;;;;;;;6.97;4.13;;;;;;;6.44;100.00;95374.78;6281656;22;20031;-66
2023/10/22 05:48:41;;;;;;;10.07;6.22;;;;;;;6.41;100.00;95374.19;6281667;22;20021;-66
2023/10/22 05:51:06;;;;;;;9.27;6.38;;;;;;;6.39;100.00;95363.84;6309346;22;20382;-66
2023/10/22 05:53:32;;;;;;;5.35;4.18;;;;;;;6.40;100.00;95367.28;6282036;22;20319;-66
2023/10/22 05:55:58;;;;;;;6.75;4.50;;;;;;;6.41;100.00;95366.34;6308439;22;20055;-66
2023/10/22 05:58:24;;;;;;;5.90;3.30;;;;;;;6.38;100.00;95374.44;6309378;22;20019;-66
2023/10/22 06:00:50;;;;;;;7.97;4.00;;;;;;;6.37;100.00;95375.38;6309807;22;19995;-66
2023/10/22 06:03:16;;;;;;;4.22;3.60;;;;;;;6.29;100.00;95365.53;6282036;22;20014;-66
2023/10/22 06:05:41;;;;;;;7.55;4.38;;;;;;;6.27;100.00;95370.88;6280892;22;20009;-66
2023/10/22 06:08:07;;;;;;;5.10;3.70;;;;;;;6.30;100.00;95373.28;6308689;22;20003;-66
2023/10/22 06:10:42;;;;;;;3.88;3.47;;;;;;;6.37;100.00;95370.16;6307465;22;20003;-66
2023/10/22 06:13:07;;;;;;;3.30;2.97;;;;;;;6.35;100.00;95379.91;6309166;22;19999;-66
2023/10/22 06:15:36;;;;;;;7.82;5.70;;;;;;;6.19;100.00;95378.53;6307937;22;20518;-66
2023/10/22 06:18:02;;;;;;;9.38;6.25;;;;;;;6.09;100.00;95381.03;6308750;22;20003;-66
2023/10/22 06:20:32;;;;;;;10.98;8.25;;;;;;;6.06;100.00;95396.13;6281316;22;20006;-66
2023/10/22 06:22:57;;;;;;;14.63;10.20;;;;;;;6.13;100.00;95407.78;6309414;22;20447;-66
2023/10/22 06:25:23;;;;;;;17.75;11.43;;;;;;;6.14;100.00;95397.19;6309436;22;20022;-66
2023/10/22 06:27:49;;;;;;;15.15;12.77;;;;;;;6.15;100.00;95405.84;6308900;22;20333;-66
2023/10/22 06:30:14;;;;;;;20.27;13.25;;;;;;;6.14;100.00;95409.44;6307982;22;19999;-66
2023/10/22 06:32:40;;;;;;;16.67;12.50;;;;;;;6.12;100.00;95406.09;6308858;22;20077;-65
2023/10/22 06:35:07;;;;;;;11.10;9.80;;;;;;;6.15;100.00;95408.47;6309179;22;20014;-66
2023/10/22 06:37:33;;;;;;;17.75;15.70;;;;;;;6.19;100.00;95420.34;6281613;22;20440;-66
2023/10/22 06:39:59;;;;;;;16.30;11.55;;;;;;;6.24;100.00;95425.22;6308974;22;20072;-66
2023/10/22 06:42:26;;;;;;;13.45;10.05;;;;;;;6.26;100.00;95426.75;6281817;22;20507;-66
2023/10/22 06:44:51;;;;;;;11.45;9.05;;;;;;;6.26;100.00;95433.78;6308940;22;20491;-66
2023/10/22 06:47:17;;;;;;;10.30;8.13;;;;;;;6.26;100.00;95444.22;6306880;22;20102;-66
2023/10/22 06:49:42;;;;;;;11.95;10.68;;;;;;;6.25;100.00;95443.38;6281770;22;20026;-66
2023/10/22 06:52:08;;;;;;;15.88;13.02;;;;;;;6.19;100.00;95430.81;6309165;22;20475;-66
2023/10/22 06:54:33;;;;;;;16.42;14.45;;;;;;;6.19;100.00;95420.34;6309039;22;20460;-66
2023/10/22 06:56:59;;;;;;;12.73;10.82;;;;;;;6.24;100.00;95430.44;6281252;22;20042;-66
2023/10/22 06:59:25;;;;;;;14.45;11.30;;;;;;;6.29;100.00;95431.72;6308481;22;19999;-66
2023/10/22 07:01:50;;;;;;;25.25;22.75;;;;;;;6.29;100.00;95429.09;6308941;22;19999;-66
2023/10/22 07:04:17;;;;;;;18.67;17.00;;;;;;;6.30;100.00;95430.78;6281728;22;19999;-66
2023/10/22 07:06:43;;;;;;;14.18;12.80;;;;;;;6.34;100.00;95427.94;6308860;22;20006;-66
2023/10/22 07:09:09;;;;;;;14.57;13.07;;;;;;;6.33;100.00;95429.69;6307973;22;19999;-66
2023/10/22 07:11:35;;;;;;;12.55;11.15;;;;;;;6.26;100.00;95437.19;6308088;22;20065;-66
2023/10/22 07:14:01;;;;;;;10.00;8.48;;;;;;;6.22;100.00;95427.94;6307573;22;20045;-66
2023/10/22 07:16:26;;;;;;;9.32;7.25;;;;;;;6.28;100.00;95424.81;6309016;22;20006;-66
2023/10/22 07:18:52;;;;;;;7.60;7.00;;;;;;;6.30;100.00;95420.34;6281319;22;20007;-66
2023/10/22 07:21:18;;;;;;;5.13;4.28;;;;;;;6.36;100.00;95428.63;6281609;22;20010;-66
2023/10/22 07:23:43;;;;;;;8.80;6.25;;;;;;;6.37;100.00;95425.88;6308381;22;20009;-66
2023/10/22 07:26:08;;;;;;;6.05;5.47;;;;;;;6.38;100.00;95424.94;6308465;22;20003;-66
2023/10/22 07:28:34;;;;;;;6.28;5.63;;;;;;;6.43;100.00;95425.41;6280305;22;20026;-66
2023/10/22 07:31:00;;;;;;;6.18;5.55;;;;;;;6.48;100.00;95419.78;6308680;22;20007;-66
2023/10/22 07:33:27;;;;;;;6.13;5.53;;;;;;;6.49;100.00;95416.22;6308892;22;20017;-66
2023/10/22 07:35:57;;;;;;;9.73;8.40;;;;;;;6.50;100.00;95422.31;6308204;22;19999;-66
2023/10/22 07:38:29;;;;;;;15.73;11.05;;;;;;;6.53;100.00;95424.66;6309156;22;19999;-66
2023/10/22 07:40:57;;;;;;;10.48;7.53;;;;;;;6.55;100.00;95417.53;6282061;22;19999;-66
2023/10/22 07:43:26;;;;;;;8.38;7.10;;;;;;;6.56;100.00;95414.78;6308501;22;20334;-66
2023/10/22 07:45:52;;;;;;;7.47;6.78;;;;;;;6.54;100.00;95408.84;6308002;22;19999;-66
2023/10/22 07:48:18;;;;;;;11.05;6.82;;;;;;;6.57;100.00;95410.38;6308381;22;19999;-66
2023/10/22 07:50:43;;;;;;;8.38;7.15;;;;;;;6.59;100.00;95411.94;6281024;22;20044;-66
2023/10/22 07:53:09;;;;;;;7.90;7.18;;;;;;;6.62;100.00;95418.69;6308650;22;20003;-66
2023/10/22 07:55:34;;;;;;;12.45;8.10;;;;;;;6.66;100.00;95414.03;6307874;22;20029;-68
2023/10/22 07:58:00;;;;;;;9.07;7.20;;;;;;;6.68;100.00;95409.50;6308868;22;19999;-66
2023/10/22 08:00:25;;;;;;;8.77;7.45;;;;;;;6.79;100.00;95413.88;6308046;22;20029;-66
2023/10/22 08:02:51;;;;;;;10.05;7.40;;;;;;;6.91;100.00;95417.25;6308249;22;19991;-66
2023/10/22 08:05:17;;;;;;;8.32;5.40;;;;;;;7.05;100.00;95427.44;6308472;22;20023;-65
2023/10/22 08:07:42;;;;;;;8.50;6.53;;;;;;;7.24;100.00;95428.53;6308761;22;20003;-66
2023/10/22 08:10:08;;;;;;;10.60;7.65;;;;;;;7.40;100.00;95436.75;6309056;22;20042;-66
2023/10/22 08:12:33;;;;;;;11.98;6.95;;;;;;;7.52;100.00;95439.31;6310959;22;19995;-66
2023/10/22 08:14:58;;;;;;;7.40;6.00;;;;;;;7.67;100.00;95435.41;6283232;22;20460;-66
2023/10/22 08:17:24;;;;;;;7.90;5.82;;;;;;;7.81;100.00;95436.00;6283035;22;20428;-66
2023/10/22 08:19:49;;;;;;;7.50;6.53;;;;;;;7.92;100.00;95440.31;6310307;22;20000;-66
2023/10/22 08:22:16;;;;;;;7.28;6.35;;;;;;;7.96;100.00;95447.00;6310747;22;20032;-66
2023/10/22 08:24:46;;;;;;;7.80;6.05;;;;;;;8.06;100.00;95452.25;6310741;22;20005;-67
2023/10/22 08:27:11;;;;;;;12.45;11.25;;;;;;;8.14;100.00;95453.25;6310509;22;19995;-66
2023/10/22 08:29:37;;;;;;;6.82;6.18;;;;;;;8.22;100.00;95455.22;6283280;22;20006;-67
2023/10/22 08:32:03;;;;;;;7.68;6.97;;;;;;;8.30;100.00;95458.00;6310645;22;20000;-67
2023/10/22 08:34:29;;;;;;;9.07;8.35;;;;;;;8.36;100.00;95461.88;6282877;22;20006;-67
2023/10/22 08:36:54;;;;;;;7.15;6.55;;;;;;;8.42;100.00;95461.34;6310003;22;20010;-66
2023/10/22 08:39:20;;;;;;;5.78;3.92;;;;;;;8.50;100.00;95468.56;6310041;22;20086;-66
2023/10/22 08:41:58;;;;;;;4.10;2.70;;;;;;;8.56;100.00;95475.06;6310535;22;20030;-66
2023/10/22 08:44:25;;;;;;;3.17;2.25;;;;;;;8.61;100.00;95470.25;6310705;22;20477;-66
2023/10/22 08:46:50;;;;;;;3.42;1.88;;;;;;;8.68;100.00;95473.16;6310403;22;20042;-66
2023/10/22 08:49:17;;;;;;;3.83;1.98;;;;;;;8.75;100.00;95474.31;6283380;22;20003;-66
2023/10/22 08:51:43;;;;;;;2.17;1.80;;;;;;;8.82;100.00;95477.19;6308894;22;19999;-66
2023/10/22 08:54:10;;;;;;;1.70;1.60;;;;;;;8.90;100.00;95477.34;6309487;22;20001;-65
2023/10/22 08:56:36;;;;;;;1.67;1.58;;;;;;;8.99;100.00;95480.97;6308981;22;20042;-65
2023/10/22 08:59:02;;;;;;;1.77;1.63;;;;;;;9.10;100.00;95482.63;6309682;22;20011;-65
2023/10/22 09:01:28;;;;;;;9.57;1.80;;;;;;;9.13;100.00;95485.78;6282423;22;19999;-66
2023/10/22 09:03:55;;;;;;;1.70;1.60;;;;;;;9.25;100.00;95499.59;6282663;22;20010;-65
2023/10/22 09:06:22;;;;;;;2.65;1.88;;;;;;;9.22;100.00;95504.31;6309005;22;20026;-65
2023/10/22 09:08:47;;;;;;;2.15;1.70;;;;;;;9.21;100.00;95497.41;6309524;22;20021;-65
2023/10/22 09:11:17;;;;;;;3.35;1.83;;;;;;;9.24;100.00;95495.31;6309189;22;20002;-66
2023/10/22 09:13:46;;;;;;;2.53;1.80;;;;;;;9.34;100.00;95497.13;6310072;22;20079;-66
2023/10/22 09:16:29;;;;;;;1.95;1.73;;;;;;;9.35;100.00;95486.47;6308891;22;20513;-66
2023/10/22 09:18:55;;;;;;;4.75;2.10;;;;;;;9.41;100.00;95475.41;6309438;22;20014;-65
2023/10/22 09:21:20;;;;;;;2.55;1.58;;;;;;;9.42;100.00;95477.06;6309014;22;19999;-65
2023/10/22 09:24:04;;;;;;;2.60;1.60;;;;;;;9.59;100.00;95482.56;6309552;22;20046;-66
2023/10/22 09:26:49;;;;;;;2.33;1.48;;;;;;;9.82;100.00;95490.13;6310182;22;19999;-65
2023/10/22 09:29:16;;;;;;;2.22;1.92;;;;;;;9.90;100.00;95479.75;6309391;22;20070;-65
2023/10/22 09:31:49;;;;;;;2.15;1.70;;;;;;;9.89;100.00;95485.97;6282673;22;20103;-66
2023/10/22 09:34:25;;;;;;;4.85;2.08;;;;;;;9.99;100.00;95494.66;6309872;22;19999;-65
2023/10/22 09:36:52;;;;;;;4.13;2.47;;;;;;;10.14;100.00;95488.94;6309095;22;20091;-65
2023/10/22 09:39:35;;;;;;;1.75;1.50;;;;;;;10.19;100.00;95489.34;6309664;22;20415;-65
2023/10/22 09:42:04;;;;;;;3.75;1.77;;;;;;;10.26;100.00;95486.97;6308745;22;20006;-65
2023/10/22 09:44:33;;;;;;;1.63;1.50;;;;;;;10.31;100.00;95495.22;6308801;22;19995;-65
2023/10/22 09:47:03;;;;;;;2.50;1.42;;;;;;;10.31;100.00;95495.22;6309776;22;19995;-66
2023/10/22 09:49:30;;;;;;;1.83;1.63;;;;;;;10.37;100.00;95499.09;6309022;22;20032;-65
2023/10/22 09:52:02;;;;;;;1.60;1.50;;;;;;;10.45;100.00;95501.84;6309821;22;20011;-65
2023/10/22 09:54:38;;;;;;;1.95;1.40;;;;;;;10.56;100.00;95506.94;6283075;22;19999;-65
2023/10/22 09:57:15;;;;;;;4.32;1.50;;;;;;;10.65;100.00;95507.88;6309334;22;20356;-65
2023/10/22 09:59:41;;;;;;;2.85;1.65;;;;;;;10.69;100.00;95500.47;6309515;22;19999;-66
2023/10/22 10:02:16;;;;;;;2.60;1.48;;;;;;;10.68;100.00;95512.00;6309146;22;20010;-66
2023/10/22 10:04:45;;;;;;;1.70;1.60;;;;;;;10.70;100.00;95516.16;6308564;22;20052;-65
2023/10/22 10:07:11;;;;;;;2.08;1.90;;;;;;;10.83;100.00;95521.06;6308954;22;19991;-66
2023/10/22 10:09:37;;;;;;;2.10;1.90;;;;;;;10.88;100.00;95524.06;6309241;22;19999;-66
2023/10/22 10:12:06;;;;;;;1.40;1.30;;;;;;;10.88;100.00;95531.97;6308916;22;20089;-66
2023/10/22 10:14:48;;;;;;;1.80;1.60;;;;;;;10.93;100.00;95531.53;6281630;22;20022;-66
2023/10/22 10:17:15;;;;;;;3.97;1.77;;;;;;;11.09;100.00;95530.06;6308363;22;20078;-67
2023/10/22 10:19:41;;;;;;;1.85;1.55;;;;;;;11.13;100.00;95531.41;6308125;22;20004;-67
2023/10/22 10:22:07;;;;;;;4.07;1.90;;;;;;;11.21;100.00;95546.47;6308161;22;20326;-67
2023/10/22 10:24:33;;;;;;;3.58;1.88;;;;;;;11.30;100.00;95546.41;6307560;22;20003;-66
2023/10/22 10:26:59;;;;;;;2.13;1.70;;;;;;;11.39;100.00;95555.22;6308825;22;20023;-68
2023/10/22 10:29:31;;;;;;;5.28;1.80;;;;;;;11.48;100.00;95542.94;6308718;22;20014;-67
2023/10/22 10:32:19;;;;;;;1.50;1.40;;;;;;;11.61;100.00;95547.84;6308996;22;19999;-67
2023/10/22 10:34:49;;;;;;;2.00;1.80;;;;;;;11.71;100.00;95540.66;6284918;22;20045;-66
2023/10/22 10:37:20;;;;;;;3.10;1.70;;;;;;;11.88;100.00;95540.78;6308529;22;20003;-66
2023/10/22 10:39:50;;;;;;;1.73;1.63;;;;;;;11.89;100.00;95545.91;6308601;22;20018;-66
2023/10/22 10:42:31;;;;;;;2.17;1.67;;;;;;;11.94;100.00;95549.91;6308017;22;20352;-67
2023/10/22 10:45:02;;;;;;;3.60;2.75;;;;;;;12.01;100.00;95551.78;6307969;22;20010;-67
2023/10/22 10:47:32;;;;;;;4.10;1.90;;;;;;;12.11;100.00;95556.16;6308668;22;19995;-65
2023/10/22 10:50:02;;;;;;;3.17;1.75;;;;;;;12.17;100.00;95561.66;6281724;22;19995;-67
2023/10/22 10:52:29;;;;;;;1.92;1.70;;;;;;;12.25;100.00;95560.84;6309146;22;20030;-66
2023/10/22 10:54:59;;;;;;;2.45;1.73;;;;;;;12.24;100.00;95564.47;6307575;22;19995;-66
2023/10/22 10:57:36;;;;;;;4.78;1.90;;;;;;;12.25;100.00;95568.75;6306651;22;20010;-66
2023/10/22 11:00:04;;;;;;;2.38;1.70;;;;;;;12.25;100.00;95557.38;6306273;22;19999;-66
2023/10/22 11:02:38;;;;;;;2.38;1.80;;;;;;;12.32;100.00;95561.91;6307895;22;20002;-66
2023/10/22 11:05:03;;;;;;;3.40;1.60;;;;;;;12.44;100.00;95565.09;6308064;22;20053;-66
2023/10/22 11:07:29;;;;;;;2.72;1.48;;;;;;;12.59;100.00;95570.63;6306913;22;19991;-66
2023/10/22 11:09:56;;;;;;;1.55;1.30;;;;;;;12.58;100.00;95565.47;6308470;22;20377;-66
2023/10/22 11:12:22;;;;;;;1.75;1.65;;;;;;;12.71;100.00;95583.53;6307946;22;20007;-66
2023/10/22 11:14:55;;;;;;;3.15;1.40;;;;;;;12.68;100.00;95589.13;6280977;22;19995;-66
2023/10/22 11:17:20;;;;;;;1.60;1.38;;;;;;;12.73;100.00;95592.16;6308460;22;20074;-67
2023/10/22 11:19:50;;;;;;;2.72;1.33;;;;;;;12.82;100.00;95601.75;6308220;22;20109;-65
2023/10/22 11:22:15;;;;;;;1.58;1.40;;;;;;;12.92;100.00;95601.63;6307636;22;19995;-66
2023/10/22 11:24:41;;;;;;;5.05;2.63;;;;;;;13.08;100.00;95608.78;6307777;22;20021;-67
2023/10/22 11:27:08;;;;;;;3.63;1.45;;;;;;;13.20;100.00;95608.53;6307353;22;19999;-66
2023/10/22 11:29:49;;;;;;;1.63;1.52;;;;;;;13.36;100.00;95613.03;6280010;22;19995;-68